createdAt,value
2022-08-28T00:00:56.150Z,99910.30
2022-08-28T00:03:28.761Z,99914.35
2022-08-28T00:06:02.101Z,99920.71
2022-08-28T00:08:32.145Z,99919.20
2022-08-28T00:11:01.296Z,99922.27
2022-08-28T00:13:31.116Z,99923.21
2022-08-28T00:16:04.592Z,99922.66
2022-08-28T00:18:34.972Z,99925.56
2022-08-28T00:21:04.340Z,99929.81
2022-08-28T00:23:42.766Z,99929.63
2022-08-28T00:26:33.439Z,99924.00
2022-08-28T00:29:01.783Z,99925.00
2022-08-28T00:31:30.232Z,99919.02
2022-08-28T00:34:02.096Z,99913.52
2022-08-28T00:36:31.913Z,99915.64
2022-08-28T00:39:02.806Z,99913.31
2022-08-28T00:41:32.581Z,99912.14
2022-08-28T00:44:10.735Z,99913.64
2022-08-28T00:46:42.032Z,99917.25
2022-08-28T00:49:12.501Z,99916.37
2022-08-28T00:51:59.191Z,99916.83
2022-08-28T00:54:37.455Z,99915.09
2022-08-28T00:57:08.846Z,99914.67
2022-08-28T00:59:38.916Z,99912.02
2022-08-28T01:02:08.538Z,99910.52
2022-08-28T01:04:42.737Z,99915.61
2022-08-28T01:07:17.224Z,99912.91
2022-08-28T01:09:50.047Z,99921.69
2022-08-28T01:12:23.252Z,99921.60
2022-08-28T01:14:58.126Z,99915.17
2022-08-28T01:17:43.082Z,99917.20
2022-08-28T01:20:16.899Z,99916.30
2022-08-28T01:22:53.740Z,99915.09
2022-08-28T01:25:33.608Z,99912.83
2022-08-28T01:28:03.660Z,99908.73
2022-08-28T01:30:34.592Z,99910.91
2022-08-28T01:33:03.659Z,99907.63
2022-08-28T01:35:35.219Z,99906.05
2022-08-28T01:38:04.693Z,99907.66
2022-08-28T01:40:38.205Z,99905.91
2022-08-28T01:43:12.355Z,99910.15
2022-08-28T01:45:47.301Z,99902.85
2022-08-28T01:48:19.315Z,99906.08
2022-08-28T01:50:47.575Z,99900.24
2022-08-28T01:53:19.042Z,99904.86
2022-08-28T01:55:47.761Z,99900.14
2022-08-28T01:58:18.856Z,99903.65
2022-08-28T02:00:46.886Z,99900.48
2022-08-28T02:03:16.427Z,99900.63
2022-08-28T02:05:44.363Z,99902.08
2022-08-28T02:08:15.392Z,99901.84
2022-08-28T02:10:44.694Z,99897.45
2022-08-28T02:13:12.727Z,99901.36
2022-08-28T02:15:43.246Z,99904.98
2022-08-28T02:18:12.815Z,99907.50
2022-08-28T02:20:46.152Z,99909.88
2022-08-28T02:23:15.485Z,99913.24
2022-08-28T02:25:46.086Z,99913.45
2022-08-28T02:28:18.933Z,99911.35
2022-08-28T02:30:53.620Z,99906.75
2022-08-28T02:33:22.522Z,99904.48
2022-08-28T02:35:52.791Z,99904.99
2022-08-28T02:38:24.567Z,99904.02
2022-08-28T02:40:57.964Z,99907.55
2022-08-28T02:43:25.693Z,99905.08
2022-08-28T02:45:56.069Z,99900.84
2022-08-28T02:48:27.095Z,99904.10
2022-08-28T02:51:03.141Z,99897.45
2022-08-28T02:53:33.131Z,99888.93
2022-08-28T02:56:15.972Z,99887.99
2022-08-28T02:58:45.302Z,99887.95
2022-08-28T03:01:13.703Z,99892.45
2022-08-28T03:03:44.324Z,99898.70
2022-08-28T03:06:13.022Z,99903.73
2022-08-28T03:08:41.413Z,99912.26
2022-08-28T03:11:09.886Z,99917.96
2022-08-28T03:13:38.233Z,99919.46
2022-08-28T03:16:08.329Z,99918.56
2022-08-28T03:18:38.051Z,99918.83
2022-08-28T03:21:08.568Z,99918.23
2022-08-28T03:23:38.564Z,99918.06
2022-08-28T03:26:08.622Z,99913.70
2022-08-28T03:28:39.339Z,99911.75
2022-08-28T03:31:08.302Z,99911.59
2022-08-28T03:33:37.390Z,99911.23
2022-08-28T03:36:10.353Z,99916.28
2022-08-28T03:38:38.887Z,99919.21
2022-08-28T03:41:12.980Z,99920.40
2022-08-28T03:43:44.422Z,99916.64
2022-08-28T03:46:19.639Z,99911.15
2022-08-28T03:48:50.753Z,99909.00
2022-08-28T03:51:29.686Z,99909.72
2022-08-28T03:53:59.277Z,99911.09
2022-08-28T03:56:30.578Z,99912.15
2022-08-28T03:59:01.299Z,99917.65
2022-08-28T04:01:35.308Z,99917.65
2022-08-28T04:04:08.222Z,99922.56
2022-08-28T04:06:36.511Z,99924.22
2022-08-28T04:09:09.414Z,99923.86
2022-08-28T04:11:45.095Z,99925.98
2022-08-28T04:14:13.276Z,99924.20
2022-08-28T04:16:43.401Z,99931.45
2022-08-28T04:19:14.199Z,99934.55
2022-08-28T04:21:48.369Z,99933.57
2022-08-28T04:24:16.881Z,99932.57
2022-08-28T04:26:45.949Z,99932.78
2022-08-28T04:29:16.472Z,99940.41
2022-08-28T04:31:44.276Z,99944.48
2022-08-28T04:34:12.818Z,99946.34
2022-08-28T04:36:41.081Z,99952.19
2022-08-28T04:39:11.569Z,99953.20
2022-08-28T04:41:39.394Z,99953.55
2022-08-28T04:44:08.948Z,99949.46
2022-08-28T04:46:38.297Z,99947.86
2022-08-28T04:49:05.926Z,99945.41
2022-08-28T04:51:42.285Z,99946.25
2022-08-28T04:54:10.399Z,99946.85
2022-08-28T04:56:46.308Z,99950.88
2022-08-28T04:59:14.659Z,99950.29
2022-08-28T05:01:46.185Z,99950.42
2022-08-28T05:04:15.247Z,99950.11
2022-08-28T05:06:45.562Z,99954.09
2022-08-28T05:09:15.585Z,99954.55
2022-08-28T05:11:46.613Z,99949.27
2022-08-28T05:14:16.479Z,99942.42
2022-08-28T05:16:46.565Z,99945.11
2022-08-28T05:19:16.199Z,99942.41
2022-08-28T05:21:48.181Z,99946.47
2022-08-28T05:24:17.136Z,99951.77
2022-08-28T05:26:52.584Z,99956.73
2022-08-28T05:29:21.193Z,99958.66
2022-08-28T05:31:56.204Z,99960.45
2022-08-28T05:34:26.429Z,99960.92
2022-08-28T05:36:55.122Z,99961.52
2022-08-28T05:39:22.992Z,99966.37
2022-08-28T05:41:51.447Z,99967.69
2022-08-28T05:44:23.324Z,99968.59
2022-08-28T05:46:53.262Z,99966.23
2022-08-28T05:49:22.843Z,99966.95
2022-08-28T05:51:52.431Z,99965.19
2022-08-28T05:54:23.151Z,99962.59
2022-08-28T05:56:52.949Z,99967.06
2022-08-28T05:59:21.679Z,99969.55
2022-08-28T06:01:51.371Z,99969.52
2022-08-28T06:04:22.304Z,99971.06
2022-08-28T06:06:50.597Z,99972.21
2022-08-28T06:09:26.605Z,99970.77
2022-08-28T06:11:59.380Z,99970.19
2022-08-28T06:14:28.852Z,99968.86
2022-08-28T06:17:01.770Z,99975.02
2022-08-28T06:19:32.106Z,99971.98
2022-08-28T06:22:07.415Z,99975.00
2022-08-28T06:24:35.878Z,99975.00
2022-08-28T06:27:04.670Z,99977.17
2022-08-28T06:29:32.290Z,99976.75
2022-08-28T06:32:03.865Z,99974.41
2022-08-28T06:34:31.838Z,99974.90
2022-08-28T06:37:00.084Z,99976.02
2022-08-28T06:39:27.733Z,99980.39
2022-08-28T06:41:55.516Z,99979.80
2022-08-28T06:44:23.306Z,99977.98
2022-08-28T06:46:53.412Z,99979.58
2022-08-28T06:49:22.346Z,99975.12
2022-08-28T06:51:50.500Z,99978.27
2022-08-28T06:54:22.795Z,99981.45
2022-08-28T06:56:52.232Z,99980.04
2022-08-28T06:59:20.754Z,99978.11
2022-08-28T07:01:48.722Z,99979.30
2022-08-28T07:04:17.749Z,99981.04
2022-08-28T07:06:53.040Z,99979.20
2022-08-28T07:09:25.509Z,99980.24
2022-08-28T07:12:00.889Z,99982.54
2022-08-28T07:14:31.305Z,99976.75
2022-08-28T07:16:59.977Z,99975.56
2022-08-28T07:19:27.709Z,99980.02
2022-08-28T07:21:55.735Z,99983.72
2022-08-28T07:24:24.051Z,99989.73
2022-08-28T07:26:52.025Z,99989.13
2022-08-28T07:29:20.403Z,99990.00
2022-08-28T07:31:50.894Z,99987.38
2022-08-28T07:34:21.441Z,99987.36
2022-08-28T07:36:51.778Z,99985.67
2022-08-28T07:39:20.498Z,99983.53
2022-08-28T07:41:48.459Z,99985.94
2022-08-28T07:44:43.081Z,99989.20
2022-08-28T07:47:13.460Z,99988.78
2022-08-28T07:49:41.913Z,99990.48
2022-08-28T07:52:11.028Z,99993.90
2022-08-28T07:54:41.199Z,99998.58
2022-08-28T07:57:10.069Z,99999.73
2022-08-28T07:59:38.666Z,100000.69
2022-08-28T08:02:06.973Z,100001.42
2022-08-28T08:04:35.388Z,100004.30
2022-08-28T08:07:06.443Z,99999.35
2022-08-28T08:09:39.221Z,100000.75
2022-08-28T08:12:12.554Z,100001.98
2022-08-28T08:14:43.251Z,99999.86
2022-08-28T08:17:17.099Z,100006.17
2022-08-28T08:19:45.006Z,100004.77
2022-08-28T08:22:13.913Z,100011.23
2022-08-28T08:24:42.900Z,100010.66
2022-08-28T08:27:10.784Z,100013.95
2022-08-28T08:29:40.179Z,100014.49
2022-08-28T08:32:11.258Z,100018.08
2022-08-28T08:34:41.631Z,100015.94
2022-08-28T08:37:10.539Z,100014.80
2022-08-28T08:39:39.220Z,100018.08
2022-08-28T08:42:18.254Z,100021.01
2022-08-28T08:44:47.995Z,100017.73
2022-08-28T08:47:21.407Z,100019.13
2022-08-28T08:49:52.480Z,100016.02
2022-08-28T08:52:29.695Z,100022.02
2022-08-28T08:55:07.446Z,100024.85
2022-08-28T08:57:38.348Z,100026.45
2022-08-28T09:00:11.210Z,100029.64
2022-08-28T09:02:48.688Z,100029.73
2022-08-28T09:05:21.987Z,100028.25
2022-08-28T09:07:56.988Z,100026.85
2022-08-28T09:10:34.974Z,100024.67
2022-08-28T09:13:15.333Z,100030.88
2022-08-28T09:15:49.971Z,100028.34
2022-08-28T09:18:21.886Z,100032.12
2022-08-28T09:20:51.218Z,100033.98
2022-08-28T09:23:20.826Z,100032.85
2022-08-28T09:26:00.068Z,100028.43
2022-08-28T09:28:33.651Z,100029.09
2022-08-28T09:31:04.238Z,100028.58
2022-08-28T09:33:41.786Z,100029.14
2022-08-28T09:36:33.943Z,100027.73
2022-08-28T09:39:16.314Z,100027.94
2022-08-28T09:42:10.386Z,100031.95
2022-08-28T09:44:59.762Z,100032.81
2022-08-28T09:47:46.223Z,100034.15
2022-08-28T09:50:25.550Z,100033.48
2022-08-28T09:52:55.624Z,100035.52
2022-08-28T09:55:33.259Z,100034.86
2022-08-28T09:58:01.530Z,100035.04
2022-08-28T10:00:33.710Z,100033.61
2022-08-28T10:03:13.901Z,100031.86
2022-08-28T10:05:51.310Z,100033.64
2022-08-28T10:08:29.609Z,100034.22
2022-08-28T10:11:07.138Z,100035.38
2022-08-28T10:13:42.126Z,100038.10
2022-08-28T10:16:25.514Z,100038.71
2022-08-28T10:19:01.532Z,100039.10
2022-08-28T10:21:36.420Z,100038.15
2022-08-28T10:24:28.315Z,100039.89
2022-08-28T10:27:05.184Z,100040.05
2022-08-28T10:29:48.892Z,100042.34
2022-08-28T10:32:31.916Z,100042.32
2022-08-28T10:35:07.232Z,100042.17
2022-08-28T10:37:50.720Z,100041.98
2022-08-28T10:40:22.816Z,100037.27
2022-08-28T10:42:55.823Z,100036.23
2022-08-28T10:45:25.822Z,100039.83
2022-08-28T10:47:57.849Z,100044.28
2022-08-28T10:50:28.703Z,100039.82
2022-08-28T10:53:02.587Z,100044.55
2022-08-28T10:55:36.509Z,100043.43
2022-08-28T10:58:24.321Z,100048.69
2022-08-28T11:00:55.476Z,100047.86
2022-08-28T11:03:35.023Z,100055.02
2022-08-28T11:06:10.685Z,100053.74
2022-08-28T11:08:39.272Z,100058.27
2022-08-28T11:11:14.139Z,100057.90
2022-08-28T11:13:51.016Z,100061.39
2022-08-28T11:16:22.620Z,100063.61
2022-08-28T11:19:09.667Z,100064.88
2022-08-28T11:21:42.635Z,100063.50
2022-08-28T11:24:26.040Z,100061.84
2022-08-28T11:27:05.828Z,100057.08
2022-08-28T11:30:11.751Z,100057.55
2022-08-28T11:32:58.746Z,100053.59
2022-08-28T11:35:40.833Z,100055.48
2022-08-28T11:38:09.614Z,100056.84
2022-08-28T11:41:09.299Z,100058.69
2022-08-28T11:43:39.960Z,100057.45
2022-08-28T11:46:32.077Z,100054.11
2022-08-28T11:49:03.513Z,100059.12
2022-08-28T11:51:48.523Z,100061.23
2022-08-28T11:54:31.980Z,100061.57
2022-08-28T11:57:07.841Z,100065.63
2022-08-28T11:59:58.441Z,100066.66
2022-08-28T12:02:53.509Z,100067.48
2022-08-28T12:05:49.100Z,100063.80
2022-08-28T12:09:02.172Z,100061.23
2022-08-28T12:11:53.942Z,100067.82
2022-08-28T12:15:02.245Z,100073.38
2022-08-28T12:17:50.400Z,100079.92
2022-08-28T12:20:24.730Z,100076.30
2022-08-28T12:22:55.674Z,100082.02
2022-08-28T12:25:27.409Z,100084.75
2022-08-28T12:27:56.319Z,100082.23
2022-08-28T12:30:39.875Z,100088.15
2022-08-28T12:33:17.950Z,100085.46
2022-08-28T12:35:45.622Z,100087.05
2022-08-28T12:38:20.013Z,100087.54
2022-08-28T12:40:50.284Z,100089.52
2022-08-28T12:43:29.369Z,100092.66
2022-08-28T12:45:59.361Z,100093.00
2022-08-28T12:48:30.865Z,100092.27
2022-08-28T12:51:03.294Z,100089.65
2022-08-28T12:53:39.788Z,100090.16
2022-08-28T12:56:10.313Z,100090.45
2022-08-28T12:58:39.925Z,100091.25
2022-08-28T13:01:10.765Z,100093.92
2022-08-28T13:03:47.486Z,100097.64
2022-08-28T13:06:24.618Z,100101.21
2022-08-28T13:08:58.734Z,100108.57
2022-08-28T13:11:28.882Z,100118.44
2022-08-28T13:13:56.645Z,100126.27
2022-08-28T13:16:40.721Z,100128.84
2022-08-28T13:19:26.978Z,100129.30
2022-08-28T13:21:59.935Z,100132.44
2022-08-28T13:24:38.178Z,100136.93
2022-08-28T13:27:15.953Z,100136.39
2022-08-28T13:29:57.291Z,100139.69
2022-08-28T13:32:29.077Z,100140.80
2022-08-28T13:35:30.150Z,100147.23
2022-08-28T13:37:59.843Z,100139.42
2022-08-28T13:40:56.228Z,100139.94
2022-08-28T13:43:20.062Z,100142.02
2022-08-28T13:45:48.962Z,100144.88
2022-08-28T13:48:19.992Z,100149.55
2022-08-28T13:50:50.215Z,100151.90
2022-08-28T13:53:21.929Z,100154.40
2022-08-28T13:55:50.681Z,100155.54
2022-08-28T13:58:18.435Z,100158.02
2022-08-28T14:00:48.327Z,100160.55
2022-08-28T14:03:35.101Z,100161.80
2022-08-28T14:06:03.778Z,100159.80
2022-08-28T14:08:31.633Z,100164.16
2022-08-28T14:10:59.668Z,100163.06
2022-08-28T14:13:27.921Z,100161.21
2022-08-28T14:15:56.870Z,100160.25
2022-08-28T14:18:25.238Z,100158.83
2022-08-28T14:20:53.261Z,100157.08
2022-08-28T14:23:22.447Z,100155.25
2022-08-28T14:25:50.174Z,100165.32
2022-08-28T14:28:19.056Z,100161.34
2022-08-28T14:30:48.954Z,100154.71
2022-08-28T14:33:18.924Z,100159.86
2022-08-28T14:35:49.515Z,100159.40
2022-08-28T14:38:20.653Z,100161.50
2022-08-28T14:40:48.881Z,100165.64
2022-08-28T14:43:16.553Z,100171.72
2022-08-28T14:45:46.318Z,100170.10
2022-08-28T14:48:15.069Z,100170.89
2022-08-28T14:50:45.302Z,100170.41
2022-08-28T14:53:13.851Z,100176.91
2022-08-28T14:55:44.166Z,100176.48
2022-08-28T14:58:12.811Z,100174.95
2022-08-28T15:00:42.530Z,100174.55
2022-08-28T15:03:11.444Z,100173.25
2022-08-28T15:05:39.483Z,100172.90
2022-08-28T15:08:09.345Z,100175.76
2022-08-28T15:10:39.721Z,100172.12
2022-08-28T15:13:09.396Z,100169.33
2022-08-28T15:15:38.751Z,100173.16
2022-08-28T15:18:07.270Z,100174.80
2022-08-28T15:20:38.604Z,100169.75
2022-08-28T15:23:08.599Z,100174.88
2022-08-28T15:25:36.332Z,100174.84
2022-08-28T15:28:04.391Z,100174.93
2022-08-28T15:30:32.292Z,100169.61
2022-08-28T15:33:00.039Z,100172.38
2022-08-28T15:35:27.878Z,100167.94
2022-08-28T15:37:55.467Z,100169.19
2022-08-28T15:40:41.397Z,100167.54
2022-08-28T15:43:09.153Z,100165.90
2022-08-28T15:45:37.512Z,100166.48
2022-08-28T15:48:05.621Z,100168.95
2022-08-28T15:50:33.296Z,100170.59
2022-08-28T15:53:01.087Z,100170.41
2022-08-28T15:55:29.590Z,100176.06
2022-08-28T15:57:57.391Z,100174.48
2022-08-28T16:00:25.448Z,100177.73
2022-08-28T16:02:59.115Z,100181.45
2022-08-28T16:05:31.213Z,100181.88
2022-08-28T16:08:00.187Z,100185.02
2022-08-28T16:10:28.227Z,100181.01
2022-08-28T16:12:57.630Z,100178.45
2022-08-28T16:15:25.753Z,100182.38
2022-08-28T16:17:53.329Z,100189.48
2022-08-28T16:20:21.011Z,100190.13
2022-08-28T16:22:48.939Z,100187.96
2022-08-28T16:25:17.425Z,100196.23
2022-08-28T16:27:45.087Z,100195.52
2022-08-28T16:30:15.614Z,100196.69
2022-08-28T16:32:46.741Z,100201.42
2022-08-28T16:35:32.036Z,100203.94
2022-08-28T16:38:04.651Z,100205.27
2022-08-28T16:40:32.344Z,100205.92
2022-08-28T16:43:00.190Z,100212.65
2022-08-28T16:45:27.805Z,100208.92
2022-08-28T16:47:55.414Z,100210.80
2022-08-28T16:50:26.147Z,100207.98
2022-08-28T16:52:54.366Z,100211.42
2022-08-28T16:55:22.158Z,100209.34
2022-08-28T16:57:52.134Z,100207.93
2022-08-28T17:00:21.059Z,100210.33
2022-08-28T17:02:48.983Z,100215.16
2022-08-28T17:05:19.378Z,100214.92
2022-08-28T17:07:48.311Z,100216.40
2022-08-28T17:10:20.189Z,100213.58
2022-08-28T17:12:49.228Z,100212.87
2022-08-28T17:15:17.505Z,100215.91
2022-08-28T17:17:45.782Z,100215.61
2022-08-28T17:20:28.795Z,100217.71
2022-08-28T17:22:56.620Z,100226.20
2022-08-28T17:25:25.686Z,100227.77
2022-08-28T17:27:53.379Z,100228.39
2022-08-28T17:30:21.662Z,100234.52
2022-08-28T17:32:51.094Z,100233.48
2022-08-28T17:35:19.313Z,100237.19
2022-08-28T17:37:47.317Z,100240.38
2022-08-28T17:40:17.963Z,100241.33
2022-08-28T17:42:47.514Z,100238.09
2022-08-28T17:45:15.859Z,100242.30
2022-08-28T17:47:45.195Z,100240.22
2022-08-28T17:50:18.251Z,100240.92
2022-08-28T17:52:46.612Z,100240.42
2022-08-28T17:55:14.746Z,100243.64
2022-08-28T17:57:45.174Z,100242.69
2022-08-28T18:00:16.503Z,100242.86
2022-08-28T18:02:47.153Z,100245.35
2022-08-28T18:05:15.991Z,100249.06
2022-08-28T18:07:44.872Z,100253.60
2022-08-28T18:10:14.869Z,100254.13
2022-08-28T18:12:43.739Z,100255.09
2022-08-28T18:15:14.218Z,100258.35
2022-08-28T18:17:47.407Z,100258.57
2022-08-28T18:20:15.626Z,100262.77
2022-08-28T18:22:43.364Z,100263.14
2022-08-28T18:25:31.973Z,100263.55
2022-08-28T18:28:01.293Z,100266.70
2022-08-28T18:30:29.680Z,100270.85
2022-08-28T18:32:58.556Z,100275.60
2022-08-28T18:35:31.029Z,100274.20
2022-08-28T18:38:01.302Z,100281.90
2022-08-28T18:40:30.288Z,100278.40
2022-08-28T18:42:58.345Z,100280.33
2022-08-28T18:45:26.839Z,100285.20
2022-08-28T18:47:55.233Z,100280.00
2022-08-28T18:50:32.903Z,100284.24
2022-08-28T18:53:03.649Z,100283.54
2022-08-28T18:55:39.233Z,100286.77
2022-08-28T18:58:15.161Z,100288.41
2022-08-28T19:00:43.984Z,100291.92
2022-08-28T19:03:13.319Z,100293.95
2022-08-28T19:05:43.223Z,100298.61
2022-08-28T19:08:20.040Z,100299.65
2022-08-28T19:10:50.217Z,100300.92
2022-08-28T19:13:18.520Z,100310.75
2022-08-28T19:15:51.155Z,100313.77
2022-08-28T19:18:20.098Z,100318.01
2022-08-28T19:20:49.053Z,100321.39
2022-08-28T19:23:17.993Z,100321.05
2022-08-28T19:25:48.381Z,100323.04
2022-08-28T19:28:17.036Z,100325.23
2022-08-28T19:30:48.732Z,100321.30
2022-08-28T19:33:17.049Z,100317.20
2022-08-28T19:35:45.709Z,100318.94
2022-08-28T19:38:15.474Z,100323.16
2022-08-28T19:40:45.316Z,100322.73
2022-08-28T19:43:16.653Z,100327.51
2022-08-28T19:45:46.648Z,100325.89
2022-08-28T19:48:15.539Z,100331.01
2022-08-28T19:50:45.346Z,100335.73
2022-08-28T19:53:14.125Z,100333.68
2022-08-28T19:55:44.703Z,100336.88
2022-08-28T19:58:13.144Z,100337.06
2022-08-28T20:00:44.049Z,100337.74
2022-08-28T20:03:15.641Z,100336.73
2022-08-28T20:05:44.087Z,100339.80
2022-08-28T20:08:12.914Z,100341.94
2022-08-28T20:10:43.027Z,100344.64
2022-08-28T20:13:11.441Z,100339.31
2022-08-28T20:15:43.471Z,100341.32
2022-08-28T20:18:13.736Z,100340.82
2022-08-28T20:20:44.860Z,100342.95
2022-08-28T20:23:12.700Z,100347.96
2022-08-28T20:25:45.210Z,100351.18
2022-08-28T20:28:13.170Z,100355.09
2022-08-28T20:30:44.866Z,100363.77
2022-08-28T20:33:14.650Z,100360.81
2022-08-28T20:35:45.660Z,100360.69
2022-08-28T20:38:13.828Z,100365.35
2022-08-28T20:40:42.318Z,100372.84
2022-08-28T20:43:10.089Z,100370.37
2022-08-28T20:45:37.691Z,100373.12
2022-08-28T20:48:06.604Z,100373.80
2022-08-28T20:50:37.272Z,100374.98
2022-08-28T20:53:05.025Z,100375.05
2022-08-28T20:55:32.658Z,100377.73
2022-08-28T20:58:00.426Z,100385.75
2022-08-28T21:00:28.442Z,100383.48
2022-08-28T21:02:56.109Z,100379.98
2022-08-28T21:05:26.071Z,100379.30
2022-08-28T21:07:54.225Z,100382.26
2022-08-28T21:10:22.029Z,100382.34
2022-08-28T21:12:57.147Z,100387.04
2022-08-28T21:15:25.058Z,100385.15
2022-08-28T21:17:54.128Z,100392.30
2022-08-28T21:20:24.767Z,100389.05
2022-08-28T21:22:54.272Z,100392.02
2022-08-28T21:25:24.741Z,100394.05
2022-08-28T21:27:52.673Z,100395.52
2022-08-28T21:30:25.585Z,100392.78
2022-08-28T21:32:57.441Z,100398.48
2022-08-28T21:35:25.575Z,100400.23
2022-08-28T21:37:53.559Z,100401.45
2022-08-28T21:40:21.511Z,100404.05
2022-08-28T21:42:49.086Z,100407.31
2022-08-28T21:45:16.984Z,100406.02
2022-08-28T21:47:44.822Z,100409.36
2022-08-28T21:50:13.207Z,100410.57
2022-08-28T21:52:41.221Z,100412.13
2022-08-28T21:55:13.935Z,100413.75
2022-08-28T21:57:42.090Z,100418.33
2022-08-28T22:00:15.620Z,100425.18
2022-08-28T22:02:43.682Z,100426.56
2022-08-28T22:05:11.657Z,100427.28
2022-08-28T22:07:39.958Z,100423.95
2022-08-28T22:10:08.964Z,100424.88
2022-08-28T22:12:36.651Z,100422.05
2022-08-28T22:15:05.582Z,100429.23
2022-08-28T22:17:33.202Z,100427.73
2022-08-28T22:20:01.384Z,100426.91
2022-08-28T22:22:47.341Z,100423.77
2022-08-28T22:25:15.299Z,100425.03
2022-08-28T22:27:43.050Z,100435.12
2022-08-28T22:30:12.878Z,100441.98
2022-08-28T22:32:40.432Z,100436.21
2022-08-28T22:35:10.036Z,100437.83
2022-08-28T22:37:38.121Z,100437.46
2022-08-28T22:40:09.425Z,100438.83
2022-08-28T22:42:41.892Z,100438.08
2022-08-28T22:45:10.750Z,100440.02
2022-08-28T22:47:39.007Z,100437.14
2022-08-28T22:50:08.671Z,100440.32
2022-08-28T22:52:36.828Z,100442.44
2022-08-28T22:55:07.311Z,100443.64
2022-08-28T22:57:36.743Z,100440.45
2022-08-28T23:00:07.438Z,100441.30
2022-08-28T23:02:35.202Z,100440.55
2022-08-28T23:05:04.950Z,100441.26
2022-08-28T23:07:32.810Z,100449.04
2022-08-28T23:10:00.612Z,100444.45
2022-08-28T23:12:29.153Z,100447.02
2022-08-28T23:14:56.817Z,100445.21
2022-08-28T23:17:24.414Z,100447.48
2022-08-28T23:19:52.666Z,100449.42
2022-08-28T23:22:20.605Z,100447.63
2022-08-28T23:24:48.497Z,100445.74
2022-08-28T23:27:35.224Z,100445.75
2022-08-28T23:30:06.610Z,100445.18
2022-08-28T23:32:34.300Z,100446.55
2022-08-28T23:35:02.448Z,100450.00
2022-08-28T23:37:36.476Z,100455.09
2022-08-28T23:40:06.773Z,100452.73
2022-08-28T23:42:35.173Z,100454.67
2022-08-28T23:45:05.086Z,100454.33
2022-08-28T23:47:33.340Z,100453.92
2022-08-28T23:50:01.539Z,100453.85
2022-08-28T23:52:30.585Z,100455.00
2022-08-28T23:55:00.062Z,100454.60
2022-08-28T23:57:28.455Z,100460.84
2022-08-28T23:59:56.068Z,100455.98
